Terminal Aerodrome Forecast
Issued by NWS Jackson, KY

Home | Current Version | Previous Version | Text Only | Print | Product List | Glossary On
Versions: 1 2 3 4 5 6 7 8 9 10 11 12 13 14
000
FTUS43 KJKL 041120
TAFLOZ
TAF
KLOZ 041120Z 0412/0512 25004KT P6SM FEW080 SCT150
     FM041900 25011KT 5SM -SHRA BR VCTS SCT030CB OVC060
     FM042200 30018G24KT P6SM VCSH OVC022
     FM050300 29007KT P6SM OVC015
     FM050800 30007KT P6SM OVC009=

USA.gov is the U.S. government's official web portal to all federal, state and local government web resources and services.